Main page


Airports :

Sukkur, Pakistan

Sukkur Airport

latitude: 27-43-19N, longitude: 068-47-31E, elevation: 60 m

Current weather observation

The report was made 17 minutes ago, at 06:00 UTC
Wind 8 kt from the Southwest
Temperature 28°C
Humidity 42%
Pressure 1012 hPa
Visibility: 4000 m

METAR: OPSK 200600Z 23008KT 4000 HZ NSC 28/14 Q1012 NOSIG

Time: 11:17 (06:17 UTC)


The report was made 2 hours and 47 minutes ago, at 03:30 UTC
Forecast valid from 20 at 06 UTC to 21 at 06 UTC
Wind 5 kt from the North/Northwest with gusts up to 15 kt
Visibility: 5000 m
From 20 at 2000 UTC
Wind 5 kt from the North with gusts up to 15 kt
Visibility: 4000 m
from 21 at 00 UTC to 21 at 04 UTC
Wind 5 kt from the North
Visibility: 2000 m

TAF: OPSK 200330Z 2006/2106 34005G15KT 5000 HZ NSC FM202000 35005G15KT 4000 HZ NSC TEMPO 2100/2104 35005KT 2000 FU NSC

Weather observations and forecasts of more than 4000 airports (METAR and TAF reports).

The available stations are represented by yellow and red dots on the map.

Hover mouse over dot to see the name of the station.

Then click to see weather observations and forecasts.

To change the map : click on the green buttons with a black cross to zoom in, on the green button with a dash to zoom out, or on the green arrows for adjacent maps.